createdAt,value
2017-12-30T00:00:30.299Z,74.85
2017-12-30T00:01:53.351Z,74.91
2017-12-30T00:03:24.468Z,74.86
2017-12-30T00:04:47.777Z,74.84
2017-12-30T00:06:14.834Z,74.77
2017-12-30T00:07:42.045Z,74.91
2017-12-30T00:09:08.993Z,75.06
2017-12-30T00:10:36.178Z,75.25
2017-12-30T00:12:07.429Z,75.26
2017-12-30T00:13:34.573Z,75.09
2017-12-30T00:15:01.796Z,75.19
2017-12-30T00:16:28.713Z,75.13
2017-12-30T00:17:55.862Z,75.14
2017-12-30T00:19:18.921Z,75.20
2017-12-30T00:20:50.199Z,75.41
2017-12-30T00:22:17.450Z,75.31
2017-12-30T00:23:44.667Z,75.37
2017-12-30T00:25:11.822Z,75.63
2017-12-30T00:26:34.995Z,75.62
2017-12-30T00:28:06.093Z,75.85
2017-12-30T00:29:29.261Z,75.95
2017-12-30T00:31:00.468Z,76.01
2017-12-30T00:32:27.627Z,76.00
2017-12-30T00:33:54.868Z,76.13
2017-12-30T00:35:22.060Z,76.25
2017-12-30T00:36:44.990Z,76.34
2017-12-30T00:38:12.204Z,76.71
2017-12-30T00:39:39.338Z,76.67
2017-12-30T00:41:06.494Z,76.80
2017-12-30T00:42:37.604Z,76.77
2017-12-30T00:44:00.726Z,76.63
2017-12-30T00:45:31.878Z,76.46
2017-12-30T00:46:54.928Z,76.41
2017-12-30T00:48:26.114Z,76.37
2017-12-30T00:49:53.216Z,76.29
2017-12-30T00:51:16.325Z,76.54
2017-12-30T00:52:47.685Z,76.43
2017-12-30T00:54:14.727Z,76.50
2017-12-30T00:55:37.901Z,76.39
2017-12-30T00:57:08.766Z,76.46
2017-12-30T00:58:31.975Z,76.64
2017-12-30T01:00:03.254Z,76.62
2017-12-30T01:01:30.308Z,76.59
2017-12-30T01:02:57.665Z,76.92
2017-12-30T01:04:20.791Z,77.09
2017-12-30T01:05:51.936Z,76.92
2017-12-30T01:07:19.232Z,76.60
2017-12-30T01:08:46.466Z,76.72
2017-12-30T01:10:13.290Z,76.65
2017-12-30T01:11:36.261Z,76.59
2017-12-30T01:13:03.264Z,76.62
2017-12-30T01:14:34.413Z,76.91
2017-12-30T01:16:01.584Z,76.92
2017-12-30T01:17:28.793Z,77.06
2017-12-30T01:18:55.962Z,77.03
2017-12-30T01:20:19.137Z,77.10
2017-12-30T01:21:46.151Z,77.05
2017-12-30T01:23:13.242Z,76.88
2017-12-30T01:24:44.329Z,76.87
2017-12-30T01:26:07.591Z,77.03
2017-12-30T01:27:34.748Z,77.07
2017-12-30T01:29:02.070Z,77.11
2017-12-30T01:30:33.240Z,77.34
2017-12-30T01:31:56.438Z,77.60
2017-12-30T01:33:27.638Z,77.57
2017-12-30T01:34:54.876Z,77.55
2017-12-30T01:36:18.071Z,77.52
2017-12-30T01:37:45.113Z,77.45
2017-12-30T01:39:16.076Z,77.58
2017-12-30T01:40:42.826Z,77.50
2017-12-30T01:42:10.103Z,77.69
2017-12-30T01:43:37.215Z,77.60
2017-12-30T01:45:04.339Z,77.39
2017-12-30T01:46:31.581Z,77.71
2017-12-30T01:47:54.828Z,77.55
2017-12-30T01:49:21.922Z,77.64
2017-12-30T01:50:53.159Z,77.42
2017-12-30T01:52:20.328Z,77.55
2017-12-30T01:53:43.420Z,77.52
2017-12-30T01:55:10.611Z,77.50
2017-12-30T01:56:41.664Z,77.51
2017-12-30T01:58:04.956Z,77.56
2017-12-30T01:59:32.209Z,77.66
2017-12-30T02:01:03.469Z,77.72
2017-12-30T02:02:26.417Z,77.88
2017-12-30T02:03:53.617Z,77.73
2017-12-30T02:05:24.705Z,77.82
2017-12-30T02:06:52.051Z,77.93
2017-12-30T02:08:19.041Z,77.89
2017-12-30T02:09:42.245Z,78.21
2017-12-30T02:11:09.462Z,78.25
2017-12-30T02:12:36.727Z,78.22
2017-12-30T02:14:07.894Z,78.07
2017-12-30T02:15:31.134Z,78.25
2017-12-30T02:16:58.262Z,78.36
2017-12-30T02:18:29.486Z,78.19
2017-12-30T02:19:52.552Z,78.43
2017-12-30T02:21:19.594Z,78.40
2017-12-30T02:22:55.515Z,78.22
2017-12-30T02:24:17.875Z,78.52
2017-12-30T02:25:45.067Z,78.55
2017-12-30T02:27:12.326Z,78.82
2017-12-30T02:28:39.629Z,78.72
2017-12-30T02:30:02.877Z,78.56
2017-12-30T02:31:30.103Z,78.87
2017-12-30T02:32:57.255Z,79.09
2017-12-30T02:34:24.476Z,79.11
2017-12-30T02:35:51.747Z,79.17
2017-12-30T02:37:22.951Z,79.24
2017-12-30T02:38:49.920Z,79.03
2017-12-30T02:40:17.171Z,79.14
2017-12-30T02:41:44.141Z,79.01
2017-12-30T02:43:11.301Z,79.05
2017-12-30T02:44:34.447Z,79.33
2017-12-30T02:46:05.642Z,79.41
2017-12-30T02:47:32.737Z,79.51
2017-12-30T02:49:00.028Z,79.52
2017-12-30T02:50:27.180Z,79.43
2017-12-30T02:51:54.434Z,79.46
2017-12-30T02:53:21.491Z,79.51
2017-12-30T02:54:44.683Z,79.28
2017-12-30T02:56:15.634Z,79.38
2017-12-30T02:57:42.692Z,79.25
2017-12-30T02:59:09.962Z,79.10
2017-12-30T03:00:37.039Z,78.90
2017-12-30T03:02:04.342Z,79.10
2017-12-30T03:03:31.260Z,79.24
2017-12-30T03:04:54.426Z,79.31
2017-12-30T03:06:21.640Z,79.17
2017-12-30T03:07:52.784Z,79.25
2017-12-30T03:09:15.993Z,79.39
2017-12-30T03:10:47.249Z,79.16
2017-12-30T03:12:10.077Z,79.08
2017-12-30T03:13:41.063Z,79.27
2017-12-30T03:15:08.255Z,79.28
2017-12-30T03:16:31.562Z,79.20
2017-12-30T03:17:58.724Z,79.20
2017-12-30T03:19:25.719Z,78.96
2017-12-30T03:20:56.825Z,79.06
2017-12-30T03:22:24.002Z,79.21
2017-12-30T03:23:47.133Z,79.17
2017-12-30T03:25:18.387Z,79.24
2017-12-30T03:26:45.511Z,79.27
2017-12-30T03:28:12.397Z,79.30
2017-12-30T03:29:35.384Z,79.32
2017-12-30T03:31:06.349Z,79.31
2017-12-30T03:32:29.593Z,79.53
2017-12-30T03:34:00.738Z,79.56
2017-12-30T03:35:23.703Z,79.82
2017-12-30T03:36:50.931Z,80.05
2017-12-30T03:38:18.224Z,80.12
2017-12-30T03:39:49.711Z,80.16
2017-12-30T03:41:16.734Z,80.38
2017-12-30T03:42:39.733Z,80.25
2017-12-30T03:44:07.002Z,80.22
2017-12-30T03:45:38.275Z,80.22
2017-12-30T03:47:01.495Z,80.29
2017-12-30T03:48:28.755Z,80.69
2017-12-30T03:49:59.792Z,80.59
2017-12-30T03:51:23.146Z,80.61
2017-12-30T03:52:50.272Z,80.46
2017-12-30T03:54:21.430Z,80.66
2017-12-30T03:55:44.804Z,80.52
2017-12-30T03:57:15.845Z,80.61
2017-12-30T03:58:38.854Z,81.00
2017-12-30T04:00:06.158Z,80.75
2017-12-30T04:01:33.400Z,80.95
2017-12-30T04:03:04.596Z,80.96
2017-12-30T04:04:27.819Z,80.86
2017-12-30T04:05:59.131Z,80.86
2017-12-30T04:07:26.298Z,80.95
2017-12-30T04:08:53.537Z,81.03
2017-12-30T04:10:20.691Z,81.09
2017-12-30T04:11:43.805Z,81.12
2017-12-30T04:13:15.047Z,80.86
2017-12-30T04:14:42.127Z,80.87
2017-12-30T04:16:09.228Z,80.97
2017-12-30T04:17:32.177Z,80.86
2017-12-30T04:18:59.520Z,80.55
2017-12-30T04:20:26.812Z,80.47
2017-12-30T04:21:54.083Z,80.69
2017-12-30T04:23:21.396Z,80.91
2017-12-30T04:24:52.618Z,81.12
2017-12-30T04:26:15.818Z,81.38
2017-12-30T04:27:46.776Z,81.25
2017-12-30T04:29:13.820Z,81.06
2017-12-30T04:30:37.175Z,80.73
2017-12-30T04:32:08.222Z,80.78
2017-12-30T04:33:35.480Z,80.67
2017-12-30T04:35:02.565Z,80.55
2017-12-30T04:36:29.807Z,80.49
2017-12-30T04:37:57.034Z,80.44
2017-12-30T04:39:24.338Z,80.53
2017-12-30T04:40:51.158Z,80.29
2017-12-30T04:42:14.422Z,80.18
2017-12-30T04:43:45.568Z,80.30
2017-12-30T04:45:12.664Z,80.30
2017-12-30T04:46:39.449Z,80.29
2017-12-30T04:48:02.714Z,80.40
2017-12-30T04:49:29.914Z,80.30
2017-12-30T04:51:00.852Z,79.99
2017-12-30T04:52:23.984Z,80.17
2017-12-30T04:53:51.138Z,80.26
2017-12-30T04:55:22.334Z,80.35
2017-12-30T04:56:49.341Z,80.66
2017-12-30T04:58:12.581Z,80.66
2017-12-30T04:59:39.582Z,80.64
2017-12-30T05:01:06.891Z,80.81
2017-12-30T05:02:33.903Z,80.82
2017-12-30T05:04:01.021Z,80.75
2017-12-30T05:05:32.257Z,80.71
2017-12-30T05:06:59.508Z,80.75
2017-12-30T05:08:22.574Z,80.82
2017-12-30T05:09:49.866Z,81.10
2017-12-30T05:11:21.146Z,80.98
2017-12-30T05:12:48.114Z,81.39
2017-12-30T05:14:11.354Z,81.44
2017-12-30T05:15:38.202Z,81.25
2017-12-30T05:17:05.351Z,81.28
2017-12-30T05:18:36.516Z,81.34
2017-12-30T05:20:03.842Z,81.02
2017-12-30T05:21:27.015Z,80.87
2017-12-30T05:22:54.223Z,80.89
2017-12-30T05:24:25.358Z,80.91
2017-12-30T05:25:48.503Z,80.67
2017-12-30T05:27:19.810Z,80.93
2017-12-30T05:28:42.813Z,80.86
2017-12-30T05:30:09.931Z,80.88
2017-12-30T05:31:37.076Z,80.83
2017-12-30T05:33:08.206Z,80.83
2017-12-30T05:34:31.584Z,80.83
2017-12-30T05:36:02.611Z,80.84
2017-12-30T05:37:25.682Z,80.68
2017-12-30T05:38:57.015Z,80.49
2017-12-30T05:40:20.091Z,80.85
2017-12-30T05:41:51.235Z,81.01
2017-12-30T05:43:14.447Z,81.22
2017-12-30T05:44:45.591Z,81.05
2017-12-30T05:46:08.431Z,81.04
2017-12-30T05:47:35.648Z,81.05
2017-12-30T05:49:06.799Z,80.97
2017-12-30T05:50:29.922Z,80.75
2017-12-30T05:52:01.081Z,80.75
2017-12-30T05:53:24.271Z,80.61
2017-12-30T05:54:55.533Z,81.05
2017-12-30T05:56:18.774Z,80.99
2017-12-30T05:57:45.863Z,80.98
2017-12-30T05:59:13.114Z,81.06
2017-12-30T06:00:40.107Z,80.96
2017-12-30T06:02:07.371Z,81.27
2017-12-30T06:03:34.623Z,81.16
2017-12-30T06:05:05.852Z,81.26
2017-12-30T06:06:32.983Z,81.57
2017-12-30T06:07:56.111Z,81.53
2017-12-30T06:09:27.215Z,81.64
2017-12-30T06:10:50.509Z,81.65
2017-12-30T06:12:17.792Z,81.67
2017-12-30T06:13:44.879Z,81.78
2017-12-30T06:15:15.962Z,81.78
2017-12-30T06:16:43.152Z,81.89
2017-12-30T06:18:06.404Z,81.92
2017-12-30T06:19:33.539Z,82.01
2017-12-30T06:21:00.886Z,81.94
2017-12-30T06:22:32.238Z,81.86
2017-12-30T06:23:55.363Z,82.29
2017-12-30T06:25:22.576Z,82.79
2017-12-30T06:26:53.618Z,83.30
2017-12-30T06:28:20.778Z,83.52
2017-12-30T06:29:47.789Z,83.91
2017-12-30T06:31:10.953Z,84.01
2017-12-30T06:32:42.073Z,84.42
2017-12-30T06:34:09.315Z,84.35
2017-12-30T06:35:32.444Z,84.48
2017-12-30T06:36:59.568Z,84.55
2017-12-30T06:38:26.757Z,84.68
2017-12-30T06:39:53.913Z,84.26
2017-12-30T06:41:25.124Z,84.13
2017-12-30T06:42:52.302Z,84.04
2017-12-30T06:44:15.262Z,83.98
2017-12-30T06:45:42.489Z,84.10
2017-12-30T06:47:09.324Z,84.03
2017-12-30T06:48:40.531Z,84.02
2017-12-30T06:50:07.751Z,84.02
2017-12-30T06:51:35.020Z,84.01
2017-12-30T06:53:02.164Z,84.10
2017-12-30T06:54:29.461Z,84.04
2017-12-30T06:55:56.489Z,84.03
2017-12-30T06:57:19.727Z,84.07
2017-12-30T06:58:51.081Z,83.83
2017-12-30T07:00:14.207Z,83.77
2017-12-30T07:01:45.188Z,83.74
2017-12-30T07:03:12.602Z,83.73
2017-12-30T07:04:35.847Z,83.46
2017-12-30T07:06:02.968Z,83.53
2017-12-30T07:07:30.190Z,83.60
2017-12-30T07:09:01.254Z,83.49
2017-12-30T07:10:28.381Z,83.59
2017-12-30T07:11:51.595Z,83.59
2017-12-30T07:13:18.791Z,83.60
2017-12-30T07:14:49.792Z,83.76
2017-12-30T07:16:16.956Z,83.89
2017-12-30T07:17:44.096Z,83.88
2017-12-30T07:19:11.324Z,83.88
2017-12-30T07:20:38.583Z,83.80
2017-12-30T07:22:01.730Z,83.80
2017-12-30T07:23:28.840Z,83.90
2017-12-30T07:24:56.163Z,84.11
2017-12-30T07:26:27.374Z,83.90
2017-12-30T07:27:50.424Z,83.89
2017-12-30T07:29:21.697Z,83.79
2017-12-30T07:30:44.895Z,83.84
2017-12-30T07:32:11.960Z,84.30
2017-12-30T07:33:39.075Z,84.67
2017-12-30T07:35:10.133Z,84.75
2017-12-30T07:36:33.301Z,85.22
2017-12-30T07:38:00.516Z,85.38
2017-12-30T07:39:27.761Z,85.41
2017-12-30T07:40:54.929Z,85.75
2017-12-30T07:42:26.023Z,85.97
2017-12-30T07:43:53.092Z,86.14
2017-12-30T07:45:16.141Z,86.44
2017-12-30T07:46:47.288Z,86.22
2017-12-30T07:48:10.578Z,86.34
2017-12-30T07:49:41.764Z,86.13
2017-12-30T07:51:04.988Z,86.22
2017-12-30T07:52:32.118Z,86.25
2017-12-30T07:54:03.224Z,86.22
2017-12-30T07:55:30.064Z,86.31
2017-12-30T07:56:53.372Z,86.27
2017-12-30T07:58:24.452Z,86.33
2017-12-30T07:59:51.625Z,86.36
2017-12-30T08:01:14.859Z,86.44
2017-12-30T08:02:45.850Z,86.40
2017-12-30T08:04:12.824Z,86.23
2017-12-30T08:05:36.016Z,86.38
2017-12-30T08:07:07.278Z,86.34
2017-12-30T08:08:30.433Z,86.14
2017-12-30T08:09:57.506Z,86.30
2017-12-30T08:11:24.834Z,86.38
2017-12-30T08:12:55.996Z,86.20
2017-12-30T08:14:19.248Z,86.18
2017-12-30T08:15:50.413Z,86.50
2017-12-30T08:17:13.447Z,86.28
2017-12-30T08:18:40.646Z,86.17
2017-12-30T08:20:11.845Z,86.20
2017-12-30T08:21:34.928Z,85.96
2017-12-30T08:23:02.201Z,86.07
2017-12-30T08:24:29.445Z,86.28
2017-12-30T08:26:00.727Z,85.95
2017-12-30T08:27:27.835Z,86.03
2017-12-30T08:28:55.098Z,86.23
2017-12-30T08:30:18.285Z,86.35
2017-12-30T08:31:49.394Z,86.27
2017-12-30T08:33:12.667Z,86.39
2017-12-30T08:34:39.904Z,86.30
2017-12-30T08:36:11.018Z,86.29
2017-12-30T08:37:38.046Z,86.28
2017-12-30T08:39:05.239Z,86.19
2017-12-30T08:40:28.507Z,86.18
2017-12-30T08:41:59.755Z,86.06
2017-12-30T08:43:22.922Z,85.98
2017-12-30T08:44:54.100Z,86.05
2017-12-30T08:46:17.381Z,86.09
2017-12-30T08:47:48.536Z,86.21
2017-12-30T08:49:11.854Z,86.10
2017-12-30T08:50:38.749Z,86.36
2017-12-30T08:52:06.023Z,86.28
2017-12-30T08:53:37.087Z,86.33
2017-12-30T08:55:00.331Z,86.33
2017-12-30T08:56:27.637Z,86.38
2017-12-30T08:57:58.852Z,86.29
2017-12-30T08:59:25.832Z,86.07
2017-12-30T09:00:49.139Z,86.01
2017-12-30T09:02:16.465Z,86.12
2017-12-30T09:03:47.653Z,86.08
2017-12-30T09:05:10.852Z,86.05
2017-12-30T09:06:38.247Z,86.27
2017-12-30T09:08:09.396Z,86.10
2017-12-30T09:09:36.654Z,86.11
2017-12-30T09:11:03.730Z,86.05
2017-12-30T09:12:31.107Z,85.94
2017-12-30T09:13:58.373Z,85.89
2017-12-30T09:15:21.544Z,85.99
2017-12-30T09:16:48.840Z,85.82
2017-12-30T09:18:19.813Z,85.81
2017-12-30T09:19:47.074Z,85.74
2017-12-30T09:21:14.312Z,85.84
2017-12-30T09:22:37.584Z,85.75
2017-12-30T09:24:04.768Z,85.71
2017-12-30T09:25:31.995Z,85.70
2017-12-30T09:26:59.349Z,85.66
2017-12-30T09:28:26.562Z,85.69
2017-12-30T09:29:57.734Z,85.73
2017-12-30T09:31:21.071Z,85.58
2017-12-30T09:32:48.393Z,85.60
2017-12-30T09:34:19.648Z,85.60
2017-12-30T09:35:46.988Z,85.73
2017-12-30T09:37:10.244Z,85.56
2017-12-30T09:38:41.356Z,85.47
2017-12-30T09:40:04.628Z,85.47
2017-12-30T09:41:35.773Z,85.47
2017-12-30T09:43:03.024Z,85.64
2017-12-30T09:44:26.207Z,85.70
2017-12-30T09:45:53.517Z,85.73
2017-12-30T09:47:24.842Z,85.62
2017-12-30T09:48:51.896Z,85.70
2017-12-30T09:50:19.174Z,85.58
2017-12-30T09:51:42.351Z,85.38
2017-12-30T09:53:09.391Z,85.44
2017-12-30T09:54:36.624Z,85.41
2017-12-30T09:56:03.968Z,85.24
2017-12-30T09:57:35.227Z,85.32
2017-12-30T09:58:58.300Z,85.25
2017-12-30T10:00:29.455Z,85.19
2017-12-30T10:01:56.637Z,85.13
2017-12-30T10:03:23.990Z,85.03
2017-12-30T10:04:47.105Z,84.94
2017-12-30T10:06:18.248Z,84.88
2017-12-30T10:07:45.529Z,84.67
2017-12-30T10:09:12.593Z,84.47
2017-12-30T10:10:35.739Z,84.60
2017-12-30T10:12:06.840Z,84.53
2017-12-30T10:13:33.963Z,84.71
2017-12-30T10:14:57.083Z,84.51
2017-12-30T10:16:28.284Z,84.47
2017-12-30T10:17:51.522Z,84.42
2017-12-30T10:19:18.734Z,84.16
2017-12-30T10:20:45.995Z,84.28
2017-12-30T10:22:13.007Z,84.39
2017-12-30T10:23:44.142Z,84.29
2017-12-30T10:25:07.339Z,84.03
2017-12-30T10:26:34.653Z,84.16
2017-12-30T10:28:01.855Z,84.16
2017-12-30T10:29:33.235Z,84.35
2017-12-30T10:31:00.385Z,84.35
2017-12-30T10:32:23.648Z,84.47
2017-12-30T10:33:50.890Z,84.29
2017-12-30T10:35:21.995Z,84.34
2017-12-30T10:36:45.292Z,84.32
2017-12-30T10:38:12.415Z,84.07
2017-12-30T10:39:43.561Z,84.14
2017-12-30T10:41:06.562Z,83.82
2017-12-30T10:42:37.731Z,83.95
2017-12-30T10:44:04.754Z,84.39
2017-12-30T10:45:27.867Z,84.24
2017-12-30T10:46:59.127Z,84.07
2017-12-30T10:48:26.240Z,84.02
2017-12-30T10:49:49.344Z,84.02
2017-12-30T10:51:16.612Z,84.01
2017-12-30T10:52:43.901Z,83.97
2017-12-30T10:54:16.056Z,83.83
2017-12-30T10:55:38.431Z,83.68
2017-12-30T10:57:09.093Z,83.87
2017-12-30T10:58:36.518Z,83.92
2017-12-30T10:59:58.337Z,83.93
2017-12-30T11:01:25.251Z,83.90
2017-12-30T11:02:52.224Z,83.93
2017-12-30T11:04:23.390Z,84.02
2017-12-30T11:05:46.656Z,84.03
2017-12-30T11:07:17.684Z,84.21
2017-12-30T11:08:40.737Z,84.11
2017-12-30T11:10:07.926Z,84.05
2017-12-30T11:11:35.102Z,84.11
2017-12-30T11:13:02.273Z,84.17
2017-12-30T11:14:29.433Z,84.33
2017-12-30T11:15:56.831Z,84.19
2017-12-30T11:17:28.188Z,84.19
2017-12-30T11:18:51.548Z,84.22
2017-12-30T11:20:18.836Z,84.21
2017-12-30T11:21:45.950Z,84.11
2017-12-30T11:23:12.975Z,84.33
2017-12-30T11:24:44.030Z,84.18
2017-12-30T11:26:11.233Z,84.12
2017-12-30T11:27:38.546Z,84.15
2017-12-30T11:29:05.850Z,84.16
2017-12-30T11:30:29.150Z,84.22
2017-12-30T11:32:00.503Z,84.13
2017-12-30T11:33:27.692Z,84.05
2017-12-30T11:34:54.999Z,83.69
2017-12-30T11:36:18.327Z,83.64
2017-12-30T11:37:45.258Z,83.92
2017-12-30T11:39:12.388Z,84.14
2017-12-30T11:40:39.501Z,83.94
2017-12-30T11:42:06.837Z,83.73
2017-12-30T11:43:34.007Z,83.62
2017-12-30T11:46:28.576Z,83.59
2017-12-30T11:47:59.753Z,83.50
2017-12-30T11:49:22.903Z,83.47
2017-12-30T11:50:54.281Z,83.53
2017-12-30T11:52:17.522Z,83.73
2017-12-30T11:53:44.600Z,83.50
2017-12-30T11:55:11.695Z,83.59
2017-12-30T11:56:38.686Z,83.62
2017-12-30T11:58:05.776Z,83.77
2017-12-30T11:59:32.901Z,83.71
2017-12-30T12:01:03.996Z,83.48
2017-12-30T12:02:31.338Z,83.45
2017-12-30T12:03:58.565Z,83.56
2017-12-30T12:05:21.929Z,83.67
2017-12-30T12:06:53.125Z,83.47
2017-12-30T12:08:16.370Z,83.59
2017-12-30T12:09:47.698Z,83.70
2017-12-30T12:11:10.716Z,83.38
2017-12-30T12:12:37.807Z,83.46
2017-12-30T12:14:04.762Z,83.42
2017-12-30T12:15:35.781Z,83.32
2017-12-30T12:16:59.239Z,83.45
2017-12-30T12:18:26.372Z,83.17
2017-12-30T12:19:57.539Z,83.10
2017-12-30T12:21:24.827Z,83.22
2017-12-30T12:22:52.030Z,83.09
2017-12-30T12:24:15.325Z,83.28
2017-12-30T12:25:42.513Z,83.06
2017-12-30T12:27:09.640Z,83.19
2017-12-30T12:28:36.948Z,83.39
2017-12-30T12:30:08.272Z,82.94
2017-12-30T12:31:35.433Z,82.90
2017-12-30T12:33:02.425Z,83.08
2017-12-30T12:34:29.703Z,82.89
2017-12-30T12:35:53.113Z,83.16
2017-12-30T12:37:24.233Z,82.63
2017-12-30T12:38:51.355Z,82.65
2017-12-30T12:40:18.494Z,82.80
2017-12-30T12:41:45.326Z,83.15
2017-12-30T12:43:08.718Z,82.86
2017-12-30T12:44:35.912Z,82.97
2017-12-30T12:46:03.106Z,82.88
2017-12-30T12:47:30.336Z,83.12
2017-12-30T12:48:57.546Z,83.17
2017-12-30T12:50:24.725Z,83.05
2017-12-30T12:51:51.980Z,83.01
2017-12-30T12:53:19.023Z,83.00
2017-12-30T12:54:50.255Z,83.02
2017-12-30T12:56:17.395Z,82.98
2017-12-30T12:57:40.535Z,83.02
2017-12-30T12:59:07.790Z,83.04
2017-12-30T13:00:38.944Z,82.91
2017-12-30T13:02:02.311Z,83.06
2017-12-30T13:03:33.632Z,83.23
2017-12-30T13:04:56.977Z,83.13
2017-12-30T13:06:24.371Z,83.10
2017-12-30T13:07:51.634Z,83.16
2017-12-30T13:09:22.887Z,83.13
2017-12-30T13:10:46.237Z,83.08
2017-12-30T13:12:13.504Z,83.34
2017-12-30T13:13:40.463Z,83.03
2017-12-30T13:15:07.640Z,83.28
2017-12-30T13:16:38.929Z,83.48
2017-12-30T13:18:02.089Z,83.34
2017-12-30T13:19:29.286Z,83.40
2017-12-30T13:20:56.349Z,83.38
2017-12-30T13:22:23.664Z,83.59
2017-12-30T13:23:50.912Z,83.72
2017-12-30T13:25:17.865Z,83.86
2017-12-30T13:26:45.151Z,84.40
2017-12-30T13:28:16.327Z,85.29
2017-12-30T13:29:39.531Z,85.85
2017-12-30T13:31:10.549Z,85.93
2017-12-30T13:32:37.682Z,86.07
2017-12-30T13:34:00.860Z,86.26
2017-12-30T13:35:28.011Z,86.19
2017-12-30T13:36:55.204Z,86.42
2017-12-30T13:38:22.400Z,86.29
2017-12-30T13:39:53.675Z,86.58
2017-12-30T13:41:16.945Z,86.72
2017-12-30T13:42:47.717Z,87.10
2017-12-30T13:44:10.543Z,87.38
2017-12-30T13:45:37.767Z,87.19
2017-12-30T13:47:08.940Z,87.67
2017-12-30T13:48:32.227Z,87.81
2017-12-30T13:49:59.610Z,88.11
2017-12-30T13:51:30.836Z,88.47
2017-12-30T13:52:54.184Z,88.41
2017-12-30T13:54:21.204Z,88.56
2017-12-30T13:55:52.379Z,88.76
2017-12-30T13:57:15.661Z,88.94
2017-12-30T13:58:46.825Z,89.25
2017-12-30T14:00:14.004Z,88.92
2017-12-30T14:01:37.226Z,89.35
2017-12-30T14:03:04.251Z,89.93
2017-12-30T14:04:35.374Z,89.63
2017-12-30T14:05:58.786Z,89.73
2017-12-30T14:07:26.172Z,89.91
2017-12-30T14:08:53.376Z,89.76
2017-12-30T14:10:20.642Z,90.44
2017-12-30T14:11:47.722Z,90.37
2017-12-30T14:13:14.863Z,90.43
2017-12-30T14:14:42.037Z,90.68
2017-12-30T14:16:13.070Z,90.73
2017-12-30T14:17:36.213Z,90.71
2017-12-30T14:19:07.376Z,90.80
2017-12-30T14:20:34.710Z,90.81
2017-12-30T14:21:57.834Z,91.17
2017-12-30T14:23:29.012Z,91.13
2017-12-30T14:24:52.512Z,90.72
2017-12-30T14:26:19.585Z,90.87
2017-12-30T14:27:46.841Z,91.43
2017-12-30T14:29:14.020Z,92.18
2017-12-30T14:30:41.183Z,92.08
2017-12-30T14:32:12.280Z,92.39
2017-12-30T14:33:35.538Z,92.80
2017-12-30T14:35:02.928Z,92.82
2017-12-30T14:36:30.116Z,92.78
2017-12-30T14:38:01.329Z,93.04
2017-12-30T14:39:24.472Z,92.56
2017-12-30T14:40:55.642Z,92.77
2017-12-30T14:42:18.791Z,92.85
2017-12-30T14:43:46.039Z,92.83
2017-12-30T14:45:13.194Z,93.35
2017-12-30T14:46:40.194Z,93.54
2017-12-30T14:48:07.393Z,93.22
2017-12-30T14:49:34.690Z,93.40
2017-12-30T14:51:01.841Z,93.85
2017-12-30T14:52:29.051Z,94.19
2017-12-30T14:53:56.337Z,94.28
2017-12-30T14:55:23.550Z,94.47
2017-12-30T14:56:54.702Z,94.59
2017-12-30T14:58:17.713Z,94.43
2017-12-30T14:59:45.031Z,94.32
2017-12-30T15:01:16.157Z,94.60
2017-12-30T15:02:39.134Z,94.56
2017-12-30T15:04:06.264Z,94.69
2017-12-30T15:05:33.662Z,94.35
2017-12-30T15:07:04.881Z,94.39
2017-12-30T15:08:28.106Z,94.57
2017-12-30T15:09:55.368Z,94.47
2017-12-30T15:11:26.581Z,94.25
2017-12-30T15:12:53.704Z,94.17
2017-12-30T15:14:16.783Z,94.01
2017-12-30T15:15:43.732Z,94.28
2017-12-30T15:17:10.860Z,94.00
2017-12-30T15:18:41.723Z,94.20
2017-12-30T15:20:08.722Z,94.10
2017-12-30T15:21:31.734Z,93.72
2017-12-30T15:23:02.732Z,93.66
2017-12-30T15:24:29.860Z,93.83
2017-12-30T15:25:57.180Z,93.63
2017-12-30T15:27:20.225Z,93.76
2017-12-30T15:28:51.417Z,94.18
2017-12-30T15:30:14.641Z,94.05
2017-12-30T15:31:41.854Z,94.06
2017-12-30T15:33:08.828Z,93.88
2017-12-30T15:34:36.023Z,94.07
2017-12-30T15:36:03.150Z,94.12
2017-12-30T15:37:34.359Z,93.98
2017-12-30T15:38:57.653Z,93.87
2017-12-30T15:40:24.810Z,93.87
2017-12-30T15:41:51.936Z,93.91
2017-12-30T15:43:22.754Z,94.03
2017-12-30T15:44:49.756Z,93.98
2017-12-30T15:46:12.848Z,94.05
2017-12-30T15:47:39.989Z,94.17
2017-12-30T15:49:11.087Z,94.10
2017-12-30T15:50:34.267Z,94.25
2017-12-30T15:52:01.446Z,94.39
2017-12-30T15:53:28.806Z,94.42
2017-12-30T15:54:56.080Z,94.30
2017-12-30T15:56:23.305Z,94.34
2017-12-30T15:57:50.272Z,94.45
2017-12-30T15:59:21.443Z,94.42
2017-12-30T16:00:48.506Z,94.34
2017-12-30T16:02:15.396Z,94.52
2017-12-30T16:03:42.815Z,94.77
2017-12-30T16:05:10.104Z,94.72
2017-12-30T16:06:33.299Z,94.79
2017-12-30T16:08:00.428Z,94.69
2017-12-30T16:09:27.616Z,94.54
2017-12-30T16:10:54.880Z,94.76
2017-12-30T16:12:25.997Z,94.43
2017-12-30T16:13:53.132Z,94.46
2017-12-30T16:15:16.513Z,94.38
2017-12-30T16:16:47.786Z,94.58
2017-12-30T16:18:14.875Z,94.41
2017-12-30T16:19:38.270Z,94.25
2017-12-30T16:21:09.301Z,94.65
2017-12-30T16:22:32.683Z,94.84
2017-12-30T16:24:03.725Z,95.14
2017-12-30T16:25:26.762Z,94.76
2017-12-30T16:26:53.923Z,95.00
2017-12-30T16:28:21.517Z,94.78
2017-12-30T16:29:52.271Z,94.87
2017-12-30T16:31:12.397Z,94.79
2017-12-30T16:32:42.532Z,94.82
2017-12-30T16:34:09.827Z,94.82
2017-12-30T16:35:37.022Z,94.94
2017-12-30T16:37:04.289Z,94.83
2017-12-30T16:38:31.369Z,94.96
2017-12-30T16:39:58.520Z,95.19
2017-12-30T16:41:29.468Z,95.16
2017-12-30T16:42:56.452Z,95.20
2017-12-30T16:44:19.729Z,95.11
2017-12-30T16:45:46.970Z,95.10
2017-12-30T16:47:17.900Z,95.16
2017-12-30T16:48:41.044Z,95.04
2017-12-30T16:50:08.240Z,94.99
2017-12-30T16:51:35.500Z,95.02
2017-12-30T16:53:02.749Z,95.05
2017-12-30T16:54:29.803Z,94.96
2017-12-30T16:55:57.009Z,94.81
2017-12-30T16:57:28.051Z,94.96
2017-12-30T16:58:55.244Z,94.92
2017-12-30T17:00:18.473Z,95.00
2017-12-30T17:01:49.711Z,94.97
2017-12-30T17:03:12.931Z,95.08
2017-12-30T17:04:43.855Z,95.09
2017-12-30T17:06:07.184Z,95.20
2017-12-30T17:07:34.692Z,95.21
2017-12-30T17:09:01.615Z,95.10
2017-12-30T17:10:32.876Z,95.14
2017-12-30T17:12:00.205Z,95.13
2017-12-30T17:13:27.451Z,95.41
2017-12-30T17:14:54.540Z,95.69
2017-12-30T17:16:25.573Z,95.75
2017-12-30T17:17:48.490Z,95.96
2017-12-30T17:19:15.667Z,95.97
2017-12-30T17:20:38.768Z,96.02
2017-12-30T17:22:06.071Z,96.15
2017-12-30T17:23:33.144Z,96.19
2017-12-30T17:25:00.292Z,96.06
2017-12-30T17:26:31.313Z,96.17
2017-12-30T17:27:54.462Z,96.35
2017-12-30T17:29:25.580Z,96.46
2017-12-30T17:30:48.840Z,96.42
2017-12-30T17:32:16.116Z,96.63
2017-12-30T17:33:43.269Z,96.65
2017-12-30T17:35:14.415Z,96.73
2017-12-30T17:36:41.583Z,96.70
2017-12-30T17:38:05.067Z,97.00
2017-12-30T17:39:32.184Z,97.47
2017-12-30T17:40:59.496Z,97.60
2017-12-30T17:42:30.536Z,97.45
2017-12-30T17:43:53.717Z,97.57
2017-12-30T17:45:24.940Z,97.52
2017-12-30T17:46:52.130Z,97.28
2017-12-30T17:48:19.369Z,97.17
2017-12-30T17:49:42.639Z,97.07
2017-12-30T17:51:09.836Z,96.88
2017-12-30T17:52:37.019Z,96.97
2017-12-30T17:54:04.270Z,96.92
2017-12-30T17:55:31.572Z,97.04
2017-12-30T17:56:58.342Z,97.16
2017-12-30T17:58:25.233Z,97.32
2017-12-30T17:59:56.451Z,97.55
2017-12-30T18:01:19.576Z,97.72
2017-12-30T18:02:46.564Z,97.92
2017-12-30T18:04:17.671Z,97.99
2017-12-30T18:05:40.771Z,98.17
2017-12-30T18:07:11.868Z,98.20
2017-12-30T18:08:39.041Z,98.19
2017-12-30T18:10:06.118Z,98.40
2017-12-30T18:11:33.135Z,98.60
2017-12-30T18:12:56.314Z,98.92
2017-12-30T18:14:23.491Z,99.06
2017-12-30T18:15:50.439Z,99.19
2017-12-30T18:17:17.660Z,99.31
2017-12-30T18:18:44.893Z,99.45
2017-12-30T18:20:16.058Z,99.52
2017-12-30T18:21:39.054Z,99.71
2017-12-30T18:23:10.372Z,99.86
2017-12-30T18:24:33.604Z,99.99
2017-12-30T18:26:00.682Z,100.00
2017-12-30T18:27:27.445Z,100.00
2017-12-30T18:28:54.705Z,100.00
2017-12-30T18:30:22.062Z,100.00
2017-12-30T18:31:53.340Z,100.00
2017-12-30T18:33:16.562Z,100.00
2017-12-30T18:34:43.597Z,100.00
2017-12-30T18:36:10.712Z,100.00
2017-12-30T18:37:37.941Z,100.00
2017-12-30T18:39:05.129Z,100.00
2017-12-30T18:40:32.379Z,100.00
2017-12-30T18:42:03.526Z,100.00
2017-12-30T18:43:26.889Z,100.00